Main page
METAR-TAF:

METAR-TAF

Airports :

Semey Airport

Semey, Kazakhstan

latitude: 50-21-05N, longitude: 080-14-04E, elevation: 232 m

Current weather observation

The report was made 5 hours and 35 minutes ago, at 09:30 UTC
Wind 12 kt from the West with gusts up to 21 kt
Temperature 21°C
Humidity 64%
Pressure 1010 hPa
Visibility 10 km or more
Broken clouds at a height of 4000 ft, Cumulonimbus.

METAR: UASS 070930Z 27006G11MPS 9999 BKN040CB 21/14 Q1010 R26/0///60 NOSIG RMK QFE739/0986

Time: 21:05 (15:05 UTC)

Forecast

The report was made 1 hour and 3 minutes ago, at 14:02 UTC
Forecast valid from 07 at 15 UTC to 07 at 24 UTC
Wind 8 kt from the North with gusts up to 17 kt
Visibility 10 km or more
Scattered clouds at a height of 4000 ft, Cumulonimbus.
Broken clouds at a height of 10000 ft
Temporary
from 07 at 15 UTC to 07 at 21 UTC
Broken clouds at a height of 3000 ft, Cumulonimbus.
thunderstorm, light rain

TAF: UASS 071402Z 0715/0724 36004G09MPS 9999 SCT040CB BKN100 TEMPO 0715/0721 -TSRA BKN030CB

Weather observations and forecasts of more than 4000 airports (METAR and TAF reports).

The available stations are represented by yellow and red dots on the map.

Hover mouse over dot to see the name of the station.

Then click to see weather observations and forecasts.

To change the map : click on the green buttons with a black cross to zoom in, on the green button with a dash to zoom out, or on the green arrows for adjacent maps.


METAR-TAF: